Detall de PIREP

Printer-friendly versionPDF version

[2010/11/18 09:42:00]
Flight IATA:CT3232
Pilot Number:042
Company ICAO:CAT
Aircraft Type:B744/E
PAX:200
Departing Airport: LEPA
Destination Airport: LEMD
Alternate Airport:LEMG
Online: VATSIM
Route:TURIA UN733 PRADO
Flight Level:FL310
No Slew and time accel
No pause
Crash detect
Detect pilot in Cockpit between each 30 and 45 minutes
09:42 Zero fuel Weight: 466688 Lbs, Fuel Weight: 174197 Lbs
09:42 VATSIM:LEPA 180930Z 29009KT 9999 FEW030 15/05 Q1014 NOSIG
09:42 VATSIM:LEMD 180930Z 18003KT 130V240 9999 FEW050 08/02 Q1017 NOSIG
09:42 VOICE CATALONIAN
09:48 Parking Brakes off
10:11 Take-off
10:11 Take off Weight: 637358 Lbs
10:11 Wind: 292 @ 009 Knots Heading: 240
10:11 POS N39 33 16 E002 43 34
10:11 Gear Up: 192 Knots
10:11 Flaps:4 at 192 Knots
10:11 Flaps:3 at 194 Knots
10:11 Flaps:2 at 188 Knots
10:12 Flaps:1 at 232 Knots
10:13 Flaps:0 at 240 Knots
10:26 Wind:290@045 Knots Heading: 271 Ground Speed: 443 Knots Altitude 29744 ft
10:26 TOC
10:26 Fuel Weight: 158599 Lb
10:41 Wind:304@052 Knots Heading: 299 Ground Speed: 427 Knots Altitude 31085 ft
10:48 TOD
10:48 Fuel Weight: 149976 Lb
10:56 Wind:307@040 Knots Heading: 301 Ground Speed: 295 Knots Altitude 15675 ft
11:02 Flaps:1 at 231 Knots
11:03 Flaps:2 at 222 Knots
11:05 Flaps:3 at 194 Knots
11:05 Flaps:4 at 171 Knots
11:07 Gear Down: 160 Knots
11:07 Flaps:5 at 159 Knots
11:08 Flaps:6 at 154 Knots
11:11 Wind:265@006 Knots Heading: 182 Ground Speed: 158 Knots Altitude 2290 ft
11:11 TouchDown:Rate -115 ft/min Speed: 152 Knots
11:11 VATSIM:LEMD 181100Z 30007KT 260V330 9999 SCT040 11/02 Q1017 NOSIG
11:11 Land
11:11 Wind:265@006 Knots
11:11 Heading: 179
11:11 Flight Duration: 01:00
11:11 Landing Weight: 610544 Lbs
11:11 POS N40 30 45 W003 33 32
11:14 Parking brakes on
11:14 Block to Block Duration: 01:26
11:14 Final Fuel: 143315 Lbls
11:14 Spent Fuel: 30881 Lbls
11:14 Flight Length: 253 NM
11:14 TOD Land Length: 102 NM

Exportar CSV

Powered by Drupal - Modified by Danger4k